createdAt,value
2022-08-05T00:02:07.945Z,100.00
2022-08-05T00:04:40.924Z,100.00
2022-08-05T00:07:21.837Z,100.00
2022-08-05T00:10:01.974Z,100.00
2022-08-05T00:12:31.433Z,100.00
2022-08-05T00:15:54.007Z,100.00
2022-08-05T00:17:50.136Z,100.00
2022-08-05T00:20:20.385Z,100.00
2022-08-05T00:22:57.383Z,100.00
2022-08-05T00:25:45.610Z,100.00
2022-08-05T00:28:16.307Z,100.00
2022-08-05T00:31:04.208Z,100.00
2022-08-05T00:34:53.626Z,100.00
2022-08-05T00:37:13.093Z,100.00
2022-08-05T00:39:16.869Z,100.00
2022-08-05T00:41:55.114Z,100.00
2022-08-05T00:44:30.856Z,100.00
2022-08-05T00:47:04.041Z,100.00
2022-08-05T00:49:51.045Z,100.00
2022-08-05T00:52:28.200Z,100.00
2022-08-05T00:54:58.618Z,100.00
2022-08-05T00:57:38.319Z,100.00
2022-08-05T01:00:18.015Z,100.00
2022-08-05T01:02:50.105Z,100.00
2022-08-05T01:05:19.703Z,100.00
2022-08-05T01:08:40.112Z,100.00
2022-08-05T01:10:51.501Z,100.00
2022-08-05T01:13:57.558Z,100.00
2022-08-05T01:16:44.129Z,100.00
2022-08-05T01:19:46.264Z,100.00
2022-08-05T01:22:42.025Z,100.00
2022-08-05T01:26:02.758Z,100.00
2022-08-05T01:28:39.836Z,100.00
2022-08-05T01:31:17.953Z,100.00
2022-08-05T01:34:07.424Z,100.00
2022-08-05T01:36:47.112Z,100.00
2022-08-05T01:39:46.042Z,100.00
2022-08-05T01:42:11.962Z,100.00
2022-08-05T01:44:45.694Z,100.00
2022-08-05T01:47:30.506Z,100.00
2022-08-05T01:50:19.391Z,100.00
2022-08-05T01:53:02.728Z,100.00
2022-08-05T01:55:36.456Z,100.00
2022-08-05T01:58:15.546Z,100.00
2022-08-05T02:00:51.442Z,100.00
2022-08-05T02:03:40.073Z,100.00
2022-08-05T02:06:37.392Z,100.00
2022-08-05T02:09:05.189Z,100.00
2022-08-05T02:12:05.784Z,100.00
2022-08-05T02:15:12.454Z,100.00
2022-08-05T02:18:32.320Z,100.00
2022-08-05T02:20:49.347Z,100.00
2022-08-05T02:23:23.077Z,100.00
2022-08-05T02:25:54.503Z,100.00
2022-08-05T02:28:32.095Z,100.00
2022-08-05T02:31:34.855Z,100.00
2022-08-05T02:34:10.027Z,100.00
2022-08-05T02:36:44.535Z,100.00
2022-08-05T02:39:15.657Z,100.00
2022-08-05T02:42:01.010Z,100.00
2022-08-05T02:44:32.792Z,100.00
2022-08-05T02:47:02.862Z,100.00
2022-08-05T02:49:40.574Z,100.00
2022-08-05T02:52:30.148Z,100.00
2022-08-05T02:55:02.014Z,100.00
2022-08-05T02:58:11.718Z,100.00
2022-08-05T03:00:27.010Z,100.00
2022-08-05T03:02:59.921Z,100.00
2022-08-05T03:06:55.331Z,100.00
2022-08-05T03:08:26.991Z,100.00
2022-08-05T03:11:53.367Z,100.00
2022-08-05T03:13:51.915Z,100.00
2022-08-05T03:16:32.892Z,100.00
2022-08-05T03:19:12.928Z,100.00
2022-08-05T03:21:48.948Z,100.00
2022-08-05T03:31:56.721Z,100.00
2022-08-05T03:34:26.425Z,100.00
2022-08-05T03:36:56.461Z,100.00
2022-08-05T03:39:26.859Z,100.00
2022-08-05T03:41:57.987Z,100.00
2022-08-05T03:44:29.017Z,100.00
2022-08-05T03:46:58.740Z,100.00
2022-08-05T03:49:31.193Z,100.00
2022-08-05T03:52:48.658Z,100.00
2022-08-05T03:56:03.960Z,100.00
2022-08-05T03:58:13.886Z,100.00
2022-08-05T04:00:51.567Z,100.00
2022-08-05T04:03:28.386Z,100.00
2022-08-05T04:06:00.641Z,100.00
2022-08-05T04:08:36.532Z,100.00
2022-08-05T04:11:08.575Z,100.00
2022-08-05T04:13:49.813Z,100.00
2022-08-05T04:16:24.343Z,100.00
2022-08-05T04:18:57.729Z,100.00
2022-08-05T04:22:09.469Z,100.00
2022-08-05T04:24:19.624Z,100.00
2022-08-05T04:26:52.888Z,100.00
2022-08-05T04:29:22.382Z,100.00
2022-08-05T04:31:52.517Z,100.00
2022-08-05T04:34:32.945Z,100.00
2022-08-05T04:37:05.699Z,100.00
2022-08-05T04:39:35.543Z,100.00
2022-08-05T04:42:05.213Z,100.00
2022-08-05T04:44:34.591Z,100.00
2022-08-05T04:47:09.778Z,100.00
2022-08-05T04:50:01.391Z,100.00
2022-08-05T04:52:33.405Z,100.00
2022-08-05T04:55:09.586Z,100.00
2022-08-05T04:57:47.507Z,100.00
2022-08-05T05:00:18.003Z,100.00
2022-08-05T05:02:47.406Z,100.00
2022-08-05T05:05:28.455Z,100.00
2022-08-05T05:08:02.638Z,100.00
2022-08-05T05:10:33.834Z,100.00
2022-08-05T05:13:03.960Z,100.00
2022-08-05T05:15:56.252Z,100.00
2022-08-05T05:18:31.361Z,100.00
2022-08-05T05:21:05.518Z,100.00
2022-08-05T05:24:01.948Z,100.00
2022-08-05T05:26:28.727Z,100.00
2022-08-05T05:29:02.612Z,100.00
2022-08-05T05:34:07.875Z,100.00
2022-08-05T05:36:37.505Z,100.00
2022-08-05T05:39:10.790Z,100.00
2022-08-05T05:41:42.703Z,100.00
2022-08-05T05:44:35.995Z,100.00
2022-08-05T05:47:04.234Z,100.00
2022-08-05T05:49:42.735Z,100.00
2022-08-05T05:52:13.344Z,100.00
2022-08-05T05:55:02.496Z,100.00
2022-08-05T05:57:51.909Z,100.00
2022-08-05T06:00:31.433Z,100.00
2022-08-05T06:03:39.855Z,100.00
2022-08-05T06:05:55.638Z,100.00
2022-08-05T06:08:32.531Z,100.00
2022-08-05T06:11:02.727Z,100.00
2022-08-05T06:13:40.896Z,100.00
2022-08-05T06:16:30.333Z,100.00
2022-08-05T06:19:05.864Z,100.00
2022-08-05T06:21:38.355Z,100.00
2022-08-05T06:24:14.762Z,100.00
2022-08-05T06:26:51.295Z,100.00
2022-08-05T06:29:25.410Z,100.00
2022-08-05T06:32:25.585Z,100.00
2022-08-05T06:35:00.116Z,100.00
2022-08-05T06:37:56.163Z,100.00
2022-08-05T06:40:27.944Z,100.00
2022-08-05T06:43:01.687Z,100.00
2022-08-05T06:45:44.580Z,100.00
2022-08-05T06:48:55.351Z,100.00
2022-08-05T06:51:21.819Z,100.00
2022-08-05T06:53:57.721Z,100.00
2022-08-05T06:56:27.895Z,100.00
2022-08-05T06:58:57.918Z,100.00
2022-08-05T07:01:32.187Z,100.00
2022-08-05T07:04:04.113Z,100.00
2022-08-05T07:06:33.946Z,100.00
2022-08-05T07:09:04.664Z,100.00
2022-08-05T07:11:36.950Z,100.00
2022-08-05T07:14:29.327Z,100.00
2022-08-05T07:18:00.304Z,100.00
2022-08-05T07:22:47.813Z,100.00
2022-08-05T07:25:54.165Z,100.00
2022-08-05T07:28:08.360Z,100.00
2022-08-05T07:30:41.670Z,100.00
2022-08-05T07:33:16.435Z,100.00
2022-08-05T07:36:02.054Z,100.00
2022-08-05T07:38:43.328Z,100.00
2022-08-05T07:42:13.532Z,100.00
2022-08-05T07:44:18.896Z,100.00
2022-08-05T07:46:50.451Z,100.00
2022-08-05T07:49:20.725Z,100.00
2022-08-05T07:51:54.548Z,100.00
2022-08-05T07:54:30.943Z,100.00
2022-08-05T07:57:22.390Z,100.00
2022-08-05T07:59:54.210Z,100.00
2022-08-05T08:02:30.898Z,100.00
2022-08-05T08:05:18.711Z,100.00
2022-08-05T08:07:59.145Z,100.00
2022-08-05T08:10:30.521Z,100.00
2022-08-05T08:13:01.583Z,100.00
2022-08-05T08:16:33.538Z,100.00
2022-08-05T08:18:21.248Z,100.00
2022-08-05T08:21:02.837Z,100.00
2022-08-05T08:24:02.489Z,100.00
2022-08-05T08:26:26.552Z,100.00
2022-08-05T08:28:59.723Z,100.00
2022-08-05T08:31:48.330Z,100.00
2022-08-05T08:34:18.635Z,100.00
2022-08-05T08:36:54.763Z,100.00
2022-08-05T08:39:26.135Z,100.00
2022-08-05T08:41:59.806Z,100.00
2022-08-05T08:45:23.302Z,100.00
2022-08-05T08:48:07.648Z,100.00
2022-08-05T08:50:33.197Z,100.00
2022-08-05T08:53:13.172Z,100.00
2022-08-05T08:56:04.083Z,100.00
2022-08-05T08:58:37.618Z,100.00
2022-08-05T09:01:15.870Z,100.00
2022-08-05T09:03:46.576Z,100.00
2022-08-05T09:06:21.141Z,100.00
2022-08-05T09:08:53.589Z,100.00
2022-08-05T09:11:51.884Z,100.00
2022-08-05T09:14:56.546Z,100.00
2022-08-05T09:17:09.675Z,100.00
2022-08-05T09:20:02.782Z,100.00
2022-08-05T09:23:18.625Z,100.00
2022-08-05T09:26:09.848Z,100.00
2022-08-05T09:28:41.063Z,100.00
2022-08-05T09:32:39.163Z,100.00
2022-08-05T09:34:10.640Z,100.00
2022-08-05T09:36:54.794Z,100.00
2022-08-05T09:39:41.935Z,100.00
2022-08-05T09:42:24.460Z,100.00
2022-08-05T09:45:17.376Z,100.00
2022-08-05T09:47:56.467Z,100.00
2022-08-05T09:50:44.079Z,100.00
2022-08-05T09:53:25.706Z,100.00
2022-08-05T09:56:04.634Z,100.00
2022-08-05T09:58:34.433Z,100.00
2022-08-05T10:01:22.571Z,100.00
2022-08-05T10:04:10.395Z,100.00
2022-08-05T10:06:54.785Z,100.00
2022-08-05T10:09:29.925Z,100.00
2022-08-05T10:12:18.767Z,100.00
2022-08-05T10:15:20.389Z,100.00
2022-08-05T10:18:16.684Z,100.00
2022-08-05T10:20:50.790Z,100.00
2022-08-05T10:23:55.633Z,100.00
2022-08-05T10:26:19.168Z,100.00
2022-08-05T10:28:53.924Z,100.00
2022-08-05T10:32:52.514Z,100.00
2022-08-05T10:34:16.941Z,100.00
2022-08-05T10:36:47.147Z,100.00
2022-08-05T10:39:25.090Z,100.00
2022-08-05T10:42:33.556Z,100.00
2022-08-05T10:45:21.399Z,100.00
2022-08-05T10:48:30.115Z,100.00
2022-08-05T10:51:01.131Z,100.00
2022-08-05T10:53:38.209Z,100.00
2022-08-05T10:56:21.478Z,100.00
2022-08-05T10:59:07.336Z,100.00
2022-08-05T11:01:54.560Z,100.00
2022-08-05T11:04:36.616Z,100.00
2022-08-05T11:07:11.998Z,100.00
2022-08-05T11:09:47.497Z,100.00
2022-08-05T11:12:42.284Z,100.00
2022-08-05T11:15:59.475Z,100.00
2022-08-05T11:18:34.119Z,100.00
2022-08-05T11:21:06.253Z,98.23
2022-08-05T11:24:04.787Z,100.00
2022-08-05T11:26:33.667Z,98.24
2022-08-05T11:29:12.812Z,79.76
2022-08-05T11:31:58.242Z,79.23
2022-08-05T11:34:52.095Z,65.94
2022-08-05T11:38:29.747Z,68.04
2022-08-05T11:41:12.785Z,65.29
2022-08-05T11:44:05.640Z,64.95
2022-08-05T11:47:09.819Z,68.01
2022-08-05T11:49:28.029Z,66.29
2022-08-05T11:51:58.012Z,65.29
2022-08-05T11:54:35.070Z,61.97
2022-08-05T11:57:08.270Z,62.72
2022-08-05T11:59:54.445Z,60.92
2022-08-05T12:02:33.110Z,61.60
2022-08-05T12:05:17.945Z,65.31
2022-08-05T12:08:10.270Z,59.25
2022-08-05T12:10:45.186Z,57.23
2022-08-05T12:13:47.633Z,56.30
2022-08-05T12:16:20.158Z,58.02
2022-08-05T12:18:56.298Z,56.36
2022-08-05T12:21:31.923Z,55.82
2022-08-05T12:24:06.710Z,51.94
2022-08-05T12:26:44.142Z,54.13
2022-08-05T12:29:29.048Z,55.34
2022-08-05T12:32:09.828Z,56.69
2022-08-05T12:34:40.531Z,55.59
2022-08-05T12:37:17.271Z,52.21
2022-08-05T12:39:53.969Z,53.18
2022-08-05T12:42:25.373Z,51.70
2022-08-05T12:44:54.900Z,52.85
2022-08-05T12:47:32.060Z,53.53
2022-08-05T12:50:14.934Z,50.93
2022-08-05T12:52:45.340Z,50.01
2022-08-05T12:55:25.452Z,48.68
2022-08-05T12:58:38.494Z,50.14
2022-08-05T13:02:02.594Z,50.28
2022-08-05T13:03:45.459Z,48.40
2022-08-05T13:06:19.932Z,47.84
2022-08-05T13:08:52.151Z,48.10
2022-08-05T13:12:02.794Z,48.18
2022-08-05T13:14:36.591Z,48.33
2022-08-05T13:17:12.110Z,49.51
2022-08-05T13:19:52.133Z,49.62
2022-08-05T13:22:28.351Z,50.12
2022-08-05T13:25:05.715Z,50.72
2022-08-05T13:27:56.246Z,53.07
2022-08-05T13:30:34.757Z,52.15
2022-08-05T13:33:06.835Z,48.74
2022-08-05T13:35:47.504Z,49.43
2022-08-05T13:38:30.958Z,49.63
2022-08-05T13:41:05.943Z,48.90
2022-08-05T13:43:43.571Z,49.76
2022-08-05T13:46:44.392Z,48.17
2022-08-05T13:49:13.692Z,45.23
2022-08-05T13:51:46.352Z,43.98
2022-08-05T13:54:17.171Z,43.71
2022-08-05T13:56:52.029Z,45.84
2022-08-05T13:59:24.328Z,45.22
2022-08-05T14:01:57.754Z,42.99
2022-08-05T14:04:49.769Z,43.91
2022-08-05T14:08:00.611Z,42.23
2022-08-05T14:10:29.246Z,44.52
2022-08-05T14:13:01.351Z,44.29
2022-08-05T14:16:07.313Z,43.90
2022-08-05T14:18:23.215Z,42.56
2022-08-05T14:20:54.886Z,44.07
2022-08-05T14:23:28.085Z,42.73
2022-08-05T14:26:06.340Z,43.44
2022-08-05T14:28:35.873Z,44.87
2022-08-05T14:32:02.164Z,43.46
2022-08-05T14:34:12.143Z,42.69
2022-08-05T14:36:43.268Z,42.31
2022-08-05T14:39:23.158Z,44.48
2022-08-05T14:42:15.967Z,43.93
2022-08-05T14:44:42.620Z,45.58
2022-08-05T14:47:12.244Z,46.75
2022-08-05T14:49:58.539Z,47.81
2022-08-05T14:52:51.725Z,47.77
2022-08-05T14:55:18.620Z,47.48
2022-08-05T14:57:54.275Z,46.91
2022-08-05T15:00:29.321Z,48.25
2022-08-05T15:02:59.480Z,48.53
2022-08-05T15:05:29.973Z,48.23
2022-08-05T15:08:37.952Z,47.36
2022-08-05T15:11:08.603Z,47.58
2022-08-05T15:13:46.001Z,47.93
2022-08-05T15:16:19.600Z,49.08
2022-08-05T15:18:51.524Z,49.04
2022-08-05T15:21:21.929Z,50.83
2022-08-05T15:23:53.763Z,50.43
2022-08-05T15:26:31.954Z,49.29
2022-08-05T15:29:02.637Z,49.57
2022-08-05T15:31:34.861Z,50.19
2022-08-05T15:34:32.337Z,51.08
2022-08-05T15:36:53.933Z,53.05
2022-08-05T15:41:00.018Z,52.67
2022-08-05T15:42:55.124Z,52.51
2022-08-05T15:45:02.526Z,52.38
2022-08-05T15:47:32.029Z,53.05
2022-08-05T15:50:06.165Z,51.46
2022-08-05T15:52:53.963Z,52.03
2022-08-05T15:56:03.204Z,52.35
2022-08-05T15:58:16.547Z,52.82
2022-08-05T16:01:04.466Z,53.23
2022-08-05T16:03:35.960Z,53.35
2022-08-05T16:06:12.116Z,54.51
2022-08-05T16:08:41.932Z,53.81
2022-08-05T16:11:13.337Z,53.56
2022-08-05T16:13:43.271Z,52.48
2022-08-05T16:16:12.562Z,53.22
2022-08-05T16:18:51.967Z,53.23
2022-08-05T16:21:59.347Z,50.68
2022-08-05T16:24:35.826Z,48.77
2022-08-05T16:27:04.305Z,50.02
2022-08-05T16:29:37.385Z,49.51
2022-08-05T16:32:09.983Z,49.00
2022-08-05T16:34:41.723Z,47.46
2022-08-05T16:38:16.429Z,48.53
2022-08-05T16:40:05.702Z,49.21
2022-08-05T16:42:37.260Z,49.50
2022-08-05T16:46:06.893Z,50.79
2022-08-05T16:48:02.592Z,51.66
2022-08-05T16:50:32.718Z,51.24
2022-08-05T16:53:12.612Z,51.62
2022-08-05T16:55:51.879Z,49.95
2022-08-05T16:58:21.278Z,50.68
2022-08-05T17:00:54.708Z,50.89
2022-08-05T17:03:24.474Z,51.51
2022-08-05T17:05:59.585Z,52.90
2022-08-05T17:08:36.227Z,51.28
2022-08-05T17:11:23.498Z,50.78
2022-08-05T17:14:05.330Z,51.87
2022-08-05T17:16:40.468Z,52.96
2022-08-05T17:19:10.890Z,53.86
2022-08-05T17:21:40.859Z,54.36
2022-08-05T17:24:19.324Z,54.95
2022-08-05T17:27:01.107Z,57.11
2022-08-05T17:29:33.059Z,57.53
2022-08-05T17:32:03.491Z,59.94
2022-08-05T17:34:34.883Z,61.01
2022-08-05T17:37:04.731Z,62.22
2022-08-05T17:39:55.220Z,62.44
2022-08-05T17:42:30.051Z,62.58
2022-08-05T17:45:08.060Z,61.28
2022-08-05T17:47:42.615Z,61.65
2022-08-05T17:50:12.667Z,62.40
2022-08-05T17:52:53.358Z,62.01
2022-08-05T17:55:34.152Z,62.70
2022-08-05T17:58:04.861Z,64.09
2022-08-05T18:00:36.239Z,64.34
2022-08-05T18:03:59.803Z,64.79
2022-08-05T18:06:11.110Z,65.72
2022-08-05T18:08:44.764Z,66.22
2022-08-05T18:11:24.645Z,66.90
2022-08-05T18:14:07.129Z,67.10
2022-08-05T18:16:51.017Z,67.12
2022-08-05T18:19:23.261Z,68.30
2022-08-05T18:22:08.775Z,70.18
2022-08-05T18:24:39.964Z,69.29
2022-08-05T18:27:12.373Z,69.20
2022-08-05T18:29:42.694Z,68.37
2022-08-05T18:32:19.962Z,68.58
2022-08-05T18:34:49.268Z,68.88
2022-08-05T18:37:34.426Z,69.43
2022-08-05T18:40:34.187Z,69.38
2022-08-05T18:42:58.442Z,70.57
2022-08-05T18:45:41.525Z,71.12
2022-08-05T18:48:30.552Z,71.75
2022-08-05T18:52:05.612Z,72.20
2022-08-05T18:54:04.078Z,72.33
2022-08-05T18:56:33.481Z,72.40
2022-08-05T18:59:03.224Z,72.75
2022-08-05T19:01:58.032Z,73.14
2022-08-05T19:04:29.359Z,73.21
2022-08-05T19:06:59.139Z,73.52
2022-08-05T19:09:28.528Z,74.11
2022-08-05T19:12:10.584Z,73.71
2022-08-05T19:15:00.522Z,73.51
2022-08-05T19:17:59.148Z,73.58
2022-08-05T19:20:20.982Z,73.69
2022-08-05T19:22:50.252Z,74.29
2022-08-05T19:25:21.567Z,74.60
2022-08-05T19:27:59.645Z,75.33
2022-08-05T19:30:29.414Z,76.03
2022-08-05T19:32:58.787Z,76.08
2022-08-05T19:35:56.530Z,76.75
2022-08-05T19:38:22.713Z,77.32
2022-08-05T19:40:56.087Z,78.62
2022-08-05T19:44:06.823Z,79.28
2022-08-05T19:46:16.786Z,79.95
2022-08-05T19:49:01.285Z,80.70
2022-08-05T19:52:08.810Z,81.16
2022-08-05T19:54:29.508Z,81.61
2022-08-05T19:57:02.663Z,82.56
2022-08-05T19:59:55.935Z,84.21
2022-08-05T20:02:31.457Z,85.73
2022-08-05T20:05:04.655Z,87.18
2022-08-05T20:07:46.662Z,87.58
2022-08-05T20:10:22.400Z,88.57
2022-08-05T20:12:55.139Z,88.85
2022-08-05T20:15:51.723Z,89.61
2022-08-05T20:18:33.156Z,90.18
2022-08-05T20:21:06.704Z,90.73
2022-08-05T20:23:50.293Z,90.97
2022-08-05T20:26:24.739Z,91.34
2022-08-05T20:28:56.890Z,91.53
2022-08-05T20:31:42.169Z,92.30
2022-08-05T20:34:18.696Z,93.26
2022-08-05T20:36:49.453Z,93.40
2022-08-05T20:39:19.437Z,94.09
2022-08-05T20:41:49.476Z,94.96
2022-08-05T20:44:30.110Z,94.39
2022-08-05T20:47:06.626Z,94.72
2022-08-05T20:49:38.072Z,94.79
2022-08-05T20:52:10.606Z,95.38
2022-08-05T20:54:59.088Z,96.22
2022-08-05T20:57:43.009Z,96.63
2022-08-05T21:00:34.990Z,97.18
2022-08-05T21:03:08.193Z,98.26
2022-08-05T21:05:53.464Z,99.14
2022-08-05T21:08:28.023Z,99.05
2022-08-05T21:11:12.107Z,100.00
2022-08-05T21:13:55.591Z,100.00
2022-08-05T21:16:31.010Z,100.00
2022-08-05T21:19:03.465Z,100.00
2022-08-05T21:21:39.830Z,100.00
2022-08-05T21:24:16.943Z,100.00
2022-08-05T21:26:53.642Z,100.00
2022-08-05T21:29:32.090Z,100.00
2022-08-05T21:32:02.857Z,100.00
2022-08-05T21:34:33.001Z,100.00
2022-08-05T21:37:04.867Z,100.00
2022-08-05T21:39:34.907Z,100.00
2022-08-05T21:42:28.905Z,100.00
2022-08-05T21:45:00.082Z,100.00
2022-08-05T21:47:54.967Z,100.00
2022-08-05T21:50:19.603Z,100.00
2022-08-05T21:52:51.573Z,100.00
2022-08-05T21:55:43.013Z,100.00
2022-08-05T21:58:11.794Z,100.00
2022-08-05T22:00:41.488Z,100.00
2022-08-05T22:03:20.695Z,100.00
2022-08-05T22:06:09.838Z,100.00
2022-08-05T22:08:42.836Z,100.00
2022-08-05T22:11:15.727Z,100.00
2022-08-05T22:14:34.437Z,100.00
2022-08-05T22:16:51.921Z,100.00
2022-08-05T22:20:01.069Z,100.00
2022-08-05T22:22:15.612Z,100.00
2022-08-05T22:24:58.076Z,100.00
2022-08-05T22:28:10.258Z,100.00
2022-08-05T22:30:32.463Z,100.00
2022-08-05T22:33:15.722Z,100.00
2022-08-05T22:35:49.235Z,100.00
2022-08-05T22:38:19.871Z,100.00
2022-08-05T22:40:54.983Z,100.00
2022-08-05T22:43:37.106Z,100.00
2022-08-05T22:46:13.035Z,100.00
2022-08-05T22:48:47.294Z,100.00
2022-08-05T22:51:23.236Z,100.00
2022-08-05T22:54:06.607Z,100.00
2022-08-05T22:56:36.619Z,100.00
2022-08-05T22:59:43.692Z,100.00
2022-08-05T23:02:05.725Z,100.00
2022-08-05T23:04:37.564Z,100.00
2022-08-05T23:07:07.272Z,100.00
2022-08-05T23:09:58.230Z,100.00
2022-08-05T23:12:28.654Z,100.00
2022-08-05T23:14:58.410Z,100.00
2022-08-05T23:17:34.937Z,100.00
2022-08-05T23:20:17.451Z,100.00
2022-08-05T23:22:48.691Z,100.00
2022-08-05T23:25:52.196Z,100.00
2022-08-05T23:28:09.362Z,100.00
2022-08-05T23:30:52.798Z,100.00
2022-08-05T23:34:02.678Z,100.00
2022-08-05T23:36:14.126Z,100.00
2022-08-05T23:38:43.910Z,100.00
2022-08-05T23:41:13.611Z,100.00
2022-08-05T23:44:03.647Z,100.00
2022-08-05T23:46:33.424Z,100.00
2022-08-05T23:49:17.091Z,100.00
2022-08-05T23:52:01.117Z,100.00
2022-08-05T23:54:38.113Z,100.00
2022-08-05T23:57:09.228Z,100.00
